Share

Walnut Ridge, AR

Walnut Ridge Regional (KARG) Elev 272 ft | 36.12 °N, 90.93 °W | Change Station

Current weather conditions updated 9 minutes ago

Clear
Clear
73 °F
Feels Like 73 °F
N
8
Wind Variable Wind from East
Sunrise 6:25 AM
Sunset 7:41 PM
Moon Waning Gibbous

Today is forecast to be Warmer than yesterday.

Pressure 30.21 in
Visibility 9.0 miles
Clouds Clear
Dew Point 46 °F
Humidity 38%
Rainfall 0.00 in
Snow Depth Not available.
UV 10 out of 16
Pollen 9.90 out of 12
Air Quality Not available.
Flu Activity Sporadic
METAR KARG 191855Z AUTO 08007KT 360V110 9SM CLR 23/08 A3021 RMK AO1

More Conditions Fewer Conditions

Pressure 30.21 in
Visibility 9.0 miles
Clouds Clear
Dew Point 46 °F
Humidity 38%
Rainfall 0.00 in
Snow Depth Not available.
UV 10 out of 16
Pollen 9.90 out of 12
Air Quality Not available.
Flu Activity Sporadic
METAR KARG 191855Z AUTO 08007KT 360V110 9SM CLR 23/08 A3021 RMK AO1

More Conditions Fewer Conditions

10-Day Weather Forecast

Almanac

Astronomy

Apr. 19, 2014 Rise Set
Actual Time 6:25 AM CDT 7:41 PM CDT
Civil Twilight 5:58 AM CDT 8:07 PM CDT
Nautical Twilight 5:26 AM CDT 8:39 PM CDT
Astronomical Twilight 4:53 AM CDT 9:12 PM CDT
Moon No Moon Rise 9:48 AM CDT
Length of Visible Light 14h 08m
Length of Day
13h 15m
Tomorrow will be 2m 7s longer.
Waning Gibbous, 77% of the Moon is Illuminated
Today
Waning Gibbous
Apr 22
Last Quarter
Apr 29
New
May 6
First Quarter
May 14
Full

Today's Extremes

State Highs State Lows

Community

  • Piriapolis
    Piriapolis
  • A Glorious Morning
    A Glorious Morning
  • Tender Rays Of Hope
    Tender Rays Of Hope
  • Bleeding Hearts
    Bleeding Hearts
  • Sunset Silhouettes
    Sunset Silhouettes

WunderPhotos

Upload Photos

1,702,845 photos uploaded!

WunderBlogs® & News

Nearby

Snow Depth

Station Depth Elevation
No new snow has been reported.

Coastal Water Temperatures

Place Temperature
No Stations Reporting

Earthquake Activity

City Distance Mag. Time & Date
No recent earthquake activity has been reported nearby.
Minimum magnitude displayed is 2.5.

Nearby Weather Stations

Station Location Temp. Heat Index Dew Point Humidity Wind Precip. Elev Updated Type
MesoWest OKEAN , O'Kean, AR 73 °F 71 °F - - North  at  - 0.00 in / hr 274 ft 12:50 PM CDT MADIS
Rural Ravenden Springs, Ravenden Springs, AR 75.6 °F 77 °F 38 °F 26% North  at  3.6 mph 0.00 in / hr 605 ft 2:04 PM CDT Rapid Fire

Show More Stations Show Fewer Stations

What do you think?

We're not finished. Please let us know what you like, what you don't like, and what you are still missing.